Time;durP1;ratioP1;P1;durP2;ratioP2;P2;SDS_P1;SDS_P2;PMS_P1;PMS_P2;Temp;Humidity;BMP_temperature;BMP_pressure;BME280_temperature;BME280_humidity;BME280_pressure;Samples;Min_cycle;Max_cycle;Signal;HPM_P1;HPM_P2
2021/09/06 00:00:19;;;;;;;13.33;7.77;;;17.00;99.90;;;;;;5037615;28;20534;-82
2021/09/06 00:02:46;;;;;;;11.60;7.53;;;17.00;99.90;;;;;;5035739;28;20511;-82
2021/09/06 00:05:13;;;;;;;9.30;7.90;;;16.90;99.90;;;;;;5035875;28;20458;-82
2021/09/06 00:07:43;;;;;;;11.17;7.90;;;16.90;99.90;;;;;;5039167;28;20834;-82
2021/09/06 00:10:36;;;;;;;8.50;7.00;;;16.90;99.90;;;;;;5039494;28;20452;-82
2021/09/06 00:13:05;;;;;;;9.67;7.93;;;17.00;99.90;;;;;;5040052;28;20429;-82
2021/09/06 00:15:32;;;;;;;11.23;7.73;;;17.10;99.90;;;;;;5039862;28;20457;-82
2021/09/06 00:17:59;;;;;;;10.33;7.70;;;17.00;99.90;;;;;;5039238;28;20632;-82
2021/09/06 00:20:27;;;;;;;11.43;8.27;;;17.00;99.90;;;;;;5038758;28;20543;-82
2021/09/06 00:22:54;;;;;;;10.43;7.93;;;16.90;99.90;;;;;;5039359;28;20508;-82
2021/09/06 00:25:22;;;;;;;9.17;7.40;;;17.00;99.90;;;;;;5038647;28;20461;-82
2021/09/06 00:27:50;;;;;;;10.17;8.13;;;16.90;99.90;;;;;;5038969;28;20429;-82
2021/09/06 00:30:17;;;;;;;10.77;7.57;;;16.90;99.90;;;;;;5038788;28;20831;-82
2021/09/06 00:32:44;;;;;;;10.70;8.07;;;16.90;99.90;;;;;;5039083;28;20428;-82
2021/09/06 00:35:11;;;;;;;9.83;7.03;;;16.90;99.90;;;;;;5038300;28;20449;-82
2021/09/06 00:37:38;;;;;;;9.87;7.70;;;16.90;99.90;;;;;;5038676;28;20584;-82
2021/09/06 00:40:06;;;;;;;11.40;8.27;;;16.90;99.90;;;;;;5040524;28;21012;-82
2021/09/06 00:42:35;;;;;;;10.87;8.40;;;16.70;99.90;;;;;;5038213;28;20603;-82
2021/09/06 00:45:01;;;;;;;10.60;7.30;;;16.70;99.90;;;;;;5039104;28;20719;-82
2021/09/06 00:47:28;;;;;;;9.57;7.83;;;16.70;99.90;;;;;;5038670;28;20861;-82
2021/09/06 00:49:55;;;;;;;9.87;8.10;;;16.50;99.90;;;;;;5038265;28;20508;-81
2021/09/06 00:52:22;;;;;;;10.50;7.40;;;16.50;99.90;;;;;;5038332;28;20790;-81
2021/09/06 00:54:50;;;;;;;14.87;7.67;;;16.50;99.90;;;;;;5038200;28;20941;-81
2021/09/06 00:57:18;;;;;;;8.60;7.47;;;16.50;99.90;;;;;;5038645;28;20604;-81
2021/09/06 00:59:46;;;;;;;9.70;8.10;;;16.50;99.90;;;;;;5039060;28;20450;-82
2021/09/06 01:02:13;;;;;;;12.17;8.57;;;16.50;99.90;;;;;;5038988;28;20453;-82
2021/09/06 01:04:39;;;;;;;9.43;7.27;;;16.60;99.90;;;;;;5038744;28;20587;-81
2021/09/06 01:07:06;;;;;;;9.77;7.40;;;16.60;99.90;;;;;;5052429;28;20561;-81
2021/09/06 01:09:33;;;;;;;11.43;8.40;;;16.50;99.90;;;;;;5038933;28;20470;-82
2021/09/06 01:12:00;;;;;;;10.57;8.00;;;16.40;99.90;;;;;;5039868;28;20472;-81
2021/09/06 01:14:27;;;;;;;9.43;7.60;;;16.30;99.90;;;;;;5039883;28;20764;-82
2021/09/06 01:16:55;;;;;;;11.00;7.10;;;16.40;99.90;;;;;;5038818;28;20517;-82
2021/09/06 01:19:22;;;;;;;11.83;7.87;;;16.40;99.90;;;;;;5039008;28;20507;-82
2021/09/06 01:21:49;;;;;;;12.80;8.60;;;16.40;99.90;;;;;;5039527;28;20541;-82
2021/09/06 01:24:17;;;;;;;11.40;7.97;;;16.30;99.90;;;;;;5039530;28;20431;-82
2021/09/06 01:26:46;;;;;;;9.10;7.53;;;16.20;99.90;;;;;;5040878;28;20427;-81
2021/09/06 01:29:12;;;;;;;11.50;6.97;;;16.20;99.90;;;;;;5054683;28;20520;-81
2021/09/06 01:31:39;;;;;;;8.60;7.43;;;16.30;99.90;;;;;;5047484;28;20537;-82
2021/09/06 01:34:08;;;;;;;10.87;7.50;;;16.30;99.90;;;;;;5040163;28;20450;-81
2021/09/06 01:36:34;;;;;;;9.97;7.90;;;16.20;99.90;;;;;;5038721;28;20823;-81
2021/09/06 01:39:01;;;;;;;11.17;8.30;;;16.20;99.90;;;;;;5038350;28;20479;-81
2021/09/06 01:41:28;;;;;;;10.73;7.40;;;16.10;99.90;;;;;;5037911;28;20893;-82
2021/09/06 01:43:57;;;;;;;9.90;7.90;;;16.10;99.90;;;;;;5037285;28;20465;-82
2021/09/06 01:46:27;;;;;;;11.40;8.20;;;16.10;99.90;;;;;;5037620;28;20458;-81
2021/09/06 01:48:56;;;;;;;12.77;8.57;;;16.00;99.90;;;;;;5038046;28;20444;-82
2021/09/06 01:51:23;;;;;;;8.87;7.53;;;15.90;99.90;;;;;;5037575;28;20524;-82
2021/09/06 01:53:50;;;;;;;13.00;8.20;;;15.90;99.90;;;;;;5037892;28;20445;-82
2021/09/06 01:56:17;;;;;;;9.50;7.37;;;15.90;99.90;;;;;;5037688;28;20451;-82
2021/09/06 01:58:44;;;;;;;10.13;7.73;;;15.90;99.90;;;;;;5036585;28;20540;-82
2021/09/06 02:01:12;;;;;;;9.60;8.07;;;16.00;99.90;;;;;;5037336;28;20524;-82
2021/09/06 02:03:39;;;;;;;8.97;6.87;;;16.00;99.90;;;;;;5039472;28;20455;-81
2021/09/06 02:06:06;;;;;;;9.53;7.70;;;16.10;99.90;;;;;;5037990;28;20433;-81
2021/09/06 02:08:33;;;;;;;10.10;7.97;;;16.00;99.90;;;;;;5037643;28;20423;-81
2021/09/06 02:11:00;;;;;;;9.47;6.90;;;16.00;99.90;;;;;;5037394;28;20475;-82
2021/09/06 02:13:27;;;;;;;17.80;8.30;;;16.00;99.90;;;;;;5036600;28;20431;-82
2021/09/06 02:15:54;;;;;;;9.83;7.57;;;16.00;99.90;;;;;;5037517;28;20435;-82
2021/09/06 02:18:22;;;;;;;10.30;7.90;;;16.10;99.90;;;;;;5041291;28;20490;-81
2021/09/06 02:20:49;;;;;;;9.33;7.63;;;16.10;99.90;;;;;;5037293;28;20853;-82
2021/09/06 02:23:16;;;;;;;9.63;7.00;;;16.00;99.90;;;;;;5037227;28;20451;-81
2021/09/06 02:25:43;;;;;;;9.17;7.43;;;16.10;99.90;;;;;;5040967;28;20462;-81
2021/09/06 02:28:09;;;;;;;10.87;7.80;;;16.00;99.90;;;;;;5036700;28;20457;-82
2021/09/06 02:30:36;;;;;;;10.60;8.30;;;15.90;99.90;;;;;;5036297;28;20494;-82
2021/09/06 02:33:03;;;;;;;9.77;7.83;;;15.90;99.90;;;;;;5037677;28;20456;-82
2021/09/06 02:35:32;;;;;;;11.80;7.70;;;15.80;99.90;;;;;;5037575;28;20472;-82
2021/09/06 02:37:58;;;;;;;9.33;7.70;;;15.80;99.90;;;;;;5036762;28;20843;-82
2021/09/06 02:40:25;;;;;;;11.70;7.70;;;15.70;99.90;;;;;;5036431;28;20537;-82
2021/09/06 02:42:52;;;;;;;13.60;7.77;;;15.70;99.90;;;;;;5037059;28;20404;-81
2021/09/06 02:45:21;;;;;;;9.87;7.13;;;15.70;99.90;;;;;;5037150;28;20568;-82
2021/09/06 02:47:49;;;;;;;11.30;8.80;;;15.70;99.90;;;;;;5037111;28;20450;-82
2021/09/06 02:50:16;;;;;;;10.23;8.00;;;15.70;99.90;;;;;;5038746;28;20552;-82
2021/09/06 02:52:45;;;;;;;10.57;8.10;;;15.60;99.90;;;;;;5036227;28;20457;-82
2021/09/06 02:55:11;;;;;;;10.43;7.93;;;15.50;99.90;;;;;;5036014;28;20508;-82
2021/09/06 02:57:38;;;;;;;12.10;7.33;;;15.50;99.90;;;;;;5035714;28;20487;-82
2021/09/06 03:00:07;;;;;;;10.73;8.40;;;15.50;99.90;;;;;;5036530;28;21014;-82
2021/09/06 03:02:33;;;;;;;10.97;7.77;;;15.40;99.90;;;;;;5036255;28;20511;-82
2021/09/06 03:05:00;;;;;;;9.07;7.20;;;15.40;99.90;;;;;;5035732;28;20536;-82
2021/09/06 03:07:27;;;;;;;10.10;8.17;;;15.40;99.90;;;;;;5035240;28;20976;-82
2021/09/06 03:09:55;;;;;;;10.27;8.00;;;15.40;99.90;;;;;;5037437;28;20799;-81
2021/09/06 03:12:22;;;;;;;10.53;8.23;;;15.40;99.90;;;;;;5043829;28;20507;-81
2021/09/06 03:14:49;;;;;;;12.67;9.17;;;15.40;99.90;;;;;;5037768;28;20501;-82
2021/09/06 03:17:15;;;;;;;10.00;7.60;;;15.30;99.90;;;;;;5036328;28;20488;-81
2021/09/06 03:19:42;;;;;;;11.30;8.77;;;15.20;99.90;;;;;;5036185;28;20509;-82
2021/09/06 03:22:09;;;;;;;11.23;8.07;;;15.20;99.90;;;;;;5097593;22;20623;-90
2021/09/06 03:24:36;;;;;;;10.87;8.33;;;15.20;99.90;;;;;;5065787;28;20956;-90
2021/09/06 03:27:05;;;;;;;11.73;9.00;;;15.10;99.90;;;;;;5067462;28;20517;-90
2021/09/06 03:29:32;;;;;;;10.70;8.57;;;15.10;99.90;;;;;;5066350;28;20412;-89
2021/09/06 03:31:59;;;;;;;9.60;7.90;;;15.10;99.90;;;;;;5070150;28;20568;-88
2021/09/06 03:34:26;;;;;;;12.73;8.83;;;15.10;99.90;;;;;;5064111;28;21032;-90
2021/09/06 03:36:53;;;;;;;10.60;8.50;;;15.30;99.90;;;;;;5066026;28;20501;-90
2021/09/06 03:39:19;;;;;;;16.43;8.10;;;15.30;99.90;;;;;;5066816;28;20485;-89
2021/09/06 03:41:46;;;;;;;10.07;8.30;;;15.20;99.90;;;;;;5064691;28;20833;-90
2021/09/06 03:44:15;;;;;;;13.10;8.50;;;15.20;99.90;;;;;;5059633;28;20967;-90
2021/09/06 03:46:42;;;;;;;10.83;9.33;;;15.20;99.90;;;;;;5058663;28;20962;-89
2021/09/06 03:49:08;;;;;;;12.70;8.23;;;15.20;99.90;;;;;;5058471;28;20457;-90
2021/09/06 03:51:35;;;;;;;9.80;8.30;;;15.30;99.90;;;;;;5057522;28;20874;-90
2021/09/06 03:54:02;;;;;;;11.47;8.80;;;15.20;99.90;;;;;;5057361;28;20512;-90
2021/09/06 03:56:29;;;;;;;11.77;9.50;;;15.10;99.90;;;;;;5058025;28;20452;-90
2021/09/06 03:58:56;;;;;;;10.03;8.60;;;15.10;99.90;;;;;;5058235;28;20550;-89
2021/09/06 04:01:24;;;;;;;12.63;9.07;;;15.10;99.90;;;;;;5057681;28;20544;-89
2021/09/06 04:03:51;;;;;;;16.10;8.93;;;15.00;99.90;;;;;;5057610;28;20436;-90
2021/09/06 04:06:18;;;;;;;12.60;8.40;;;15.00;99.90;;;;;;5059008;28;20446;-89
2021/09/06 04:08:45;;;;;;;10.63;8.80;;;15.00;99.90;;;;;;5060099;28;20422;-89
2021/09/06 04:11:12;;;;;;;12.30;9.00;;;15.00;99.90;;;;;;5060865;28;20468;-90
2021/09/06 04:13:39;;;;;;;10.63;8.23;;;14.90;99.90;;;;;;5059000;28;20407;-89
2021/09/06 04:16:06;;;;;;;13.10;8.67;;;14.90;99.90;;;;;;5058568;28;20504;-89
2021/09/06 04:18:34;;;;;;;12.10;9.20;;;14.90;99.90;;;;;;5057421;28;20463;-89
2021/09/06 04:21:01;;;;;;;11.33;8.53;;;14.90;99.90;;;;;;5057726;28;20569;-89
2021/09/06 04:23:28;;;;;;;10.10;8.50;;;14.90;99.90;;;;;;5057347;28;20892;-89
2021/09/06 04:25:55;;;;;;;13.00;8.37;;;14.90;99.90;;;;;;5058446;28;20525;-89
2021/09/06 04:28:22;;;;;;;12.93;8.43;;;14.80;99.90;;;;;;5058525;28;20448;-90
2021/09/06 04:30:49;;;;;;;12.93;8.77;;;14.80;99.90;;;;;;5058720;28;20472;-89
2021/09/06 04:33:17;;;;;;;12.03;9.60;;;14.80;99.90;;;;;;5057777;28;20514;-90
2021/09/06 04:35:45;;;;;;;12.50;9.30;;;14.80;99.90;;;;;;5058464;28;20465;-89
2021/09/06 04:38:12;;;;;;;10.90;9.33;;;14.80;99.90;;;;;;5056906;28;20575;-90
2021/09/06 04:40:40;;;;;;;10.80;8.90;;;14.80;99.90;;;;;;5065486;28;20427;-90
2021/09/06 04:43:07;;;;;;;11.70;9.13;;;14.80;99.90;;;;;;5067846;28;20516;-89
2021/09/06 04:45:36;;;;;;;12.37;8.83;;;14.70;99.90;;;;;;5058490;28;20927;-89
2021/09/06 04:48:05;;;;;;;12.20;8.93;;;14.80;99.90;;;;;;5058918;28;20970;-89
2021/09/06 04:50:33;;;;;;;11.70;9.10;;;14.70;99.90;;;;;;5057346;28;20507;-89
2021/09/06 04:53:01;;;;;;;13.13;9.77;;;14.70;99.90;;;;;;5069469;28;20427;-90
2021/09/06 04:55:29;;;;;;;12.43;9.13;;;14.70;99.90;;;;;;5080798;28;20436;-90
2021/09/06 04:57:58;;;;;;;13.20;9.77;;;14.50;99.90;;;;;;5080852;28;20464;-90
2021/09/06 05:00:25;;;;;;;11.40;9.20;;;14.60;99.90;;;;;;5068188;28;20467;-90
2021/09/06 05:02:57;;;;;;;15.33;9.20;;;14.50;99.90;;;;;;5080745;28;20431;-90
2021/09/06 05:05:24;;;;;;;12.97;9.67;;;14.50;99.90;;;;;;5077014;28;20499;-88
2021/09/06 05:07:51;;;;;;;12.93;9.40;;;14.50;99.90;;;;;;5063118;28;20430;-87
2021/09/06 05:10:19;;;;;;;12.50;9.10;;;14.50;99.90;;;;;;5078934;28;20429;-87
2021/09/06 05:12:46;;;;;;;14.20;10.60;;;14.50;99.90;;;;;;5076295;28;20448;-84
2021/09/06 05:15:13;;;;;;;12.43;9.40;;;14.40;99.90;;;;;;5076480;28;20455;-86
2021/09/06 05:17:39;;;;;;;11.53;9.63;;;14.40;99.90;;;;;;5068177;28;20797;-85
2021/09/06 05:20:13;;;;;;;11.70;8.80;;;14.40;99.90;;;;;;5060571;28;20430;-91
2021/09/06 05:22:45;;;;;;;13.30;9.80;;;14.50;99.90;;;;;;5150954;22;20537;-89
2021/09/06 05:25:15;;;;;;;14.73;10.50;;;14.60;99.90;;;;;;5041131;28;20440;-89
2021/09/06 05:27:43;;;;;;;14.13;10.37;;;14.60;99.90;;;;;;5041057;28;20938;-87
2021/09/06 05:30:11;;;;;;;14.17;9.77;;;14.60;99.90;;;;;;5046238;28;20532;-84
2021/09/06 05:32:38;;;;;;;14.10;10.67;;;14.70;99.90;;;;;;5042094;28;21007;-81
2021/09/06 05:35:05;;;;;;;14.47;10.13;;;14.70;99.90;;;;;;5038159;28;20449;-82
2021/09/06 05:37:33;;;;;;;11.40;9.23;;;14.70;99.90;;;;;;5038390;28;20423;-82
2021/09/06 05:39:59;;;;;;;12.87;9.67;;;14.80;99.90;;;;;;5039208;28;20470;-84
2021/09/06 05:42:26;;;;;;;14.20;9.60;;;15.00;99.90;;;;;;5039721;28;20564;-81
2021/09/06 05:44:54;;;;;;;11.90;9.20;;;14.90;99.90;;;;;;5038262;28;20528;-82
2021/09/06 05:47:21;;;;;;;14.00;9.60;;;14.90;99.90;;;;;;5040299;28;20928;-83
2021/09/06 05:49:48;;;;;;;15.93;9.60;;;15.00;99.90;;;;;;5039165;28;20515;-79
2021/09/06 05:52:15;;;;;;;12.20;9.20;;;15.00;99.90;;;;;;5040556;28;20469;-81
2021/09/06 05:54:42;;;;;;;17.97;10.17;;;15.00;99.90;;;;;;5037906;28;20419;-80
2021/09/06 05:57:09;;;;;;;13.93;10.00;;;14.90;99.90;;;;;;5037648;28;20460;-80
2021/09/06 05:59:36;;;;;;;13.40;8.83;;;15.00;99.90;;;;;;5040018;28;20568;-81
2021/09/06 06:02:04;;;;;;;13.53;9.90;;;15.10;99.90;;;;;;5038209;28;20450;-82
2021/09/06 06:04:31;;;;;;;15.23;10.63;;;15.20;99.90;;;;;;5039818;28;20446;-82
2021/09/06 06:06:58;;;;;;;11.47;9.60;;;15.40;99.90;;;;;;5041041;28;20425;-81
2021/09/06 06:09:25;;;;;;;12.97;10.73;;;15.40;99.90;;;;;;5043156;28;20557;-83
2021/09/06 06:11:51;;;;;;;14.50;10.27;;;15.40;99.90;;;;;;5039012;28;20451;-82
2021/09/06 06:14:18;;;;;;;12.30;9.93;;;15.40;99.90;;;;;;5038646;28;20447;-83
2021/09/06 06:16:45;;;;;;;14.33;11.47;;;15.50;99.90;;;;;;5038951;28;20421;-81
2021/09/06 06:19:13;;;;;;;15.00;11.03;;;15.60;99.90;;;;;;5036874;28;20548;-82
2021/09/06 06:21:40;;;;;;;14.70;11.00;;;15.70;99.90;;;;;;5037711;28;20475;-83
2021/09/06 06:24:07;;;;;;;15.20;11.73;;;15.80;99.90;;;;;;5039777;28;20517;-83
2021/09/06 06:26:34;;;;;;;14.07;11.97;;;15.90;99.90;;;;;;5040155;28;20417;-82
2021/09/06 06:29:01;;;;;;;17.30;11.23;;;16.00;99.90;;;;;;5038405;28;20481;-82
2021/09/06 06:31:28;;;;;;;20.33;11.73;;;16.10;99.90;;;;;;5038848;28;20486;-82
2021/09/06 06:33:55;;;;;;;14.87;12.30;;;16.20;99.90;;;;;;5038997;28;20493;-82
2021/09/06 06:36:23;;;;;;;15.27;12.53;;;16.30;99.90;;;;;;5037540;28;20504;-82
2021/09/06 06:38:52;;;;;;;20.77;11.80;;;16.30;99.90;;;;;;5037344;28;20492;-80
2021/09/06 06:41:19;;;;;;;16.80;11.53;;;16.40;99.90;;;;;;5042413;28;20467;-81
2021/09/06 06:43:45;;;;;;;15.20;12.33;;;16.60;99.90;;;;;;5044804;28;20450;-83
2021/09/06 06:46:13;;;;;;;13.70;11.23;;;16.60;99.90;;;;;;5039742;28;20459;-82
2021/09/06 06:48:40;;;;;;;18.13;13.00;;;16.70;99.90;;;;;;5038351;28;20450;-81
2021/09/06 06:51:07;;;;;;;23.07;11.70;;;16.90;99.90;;;;;;5039052;28;20476;-82
2021/09/06 06:53:36;;;;;;;13.10;10.43;;;17.10;99.90;;;;;;5037849;28;21033;-82
2021/09/06 06:56:04;;;;;;;14.77;11.73;;;17.30;99.90;;;;;;5037955;28;20497;-82
2021/09/06 06:58:30;;;;;;;15.50;11.00;;;17.40;99.90;;;;;;5038089;28;20486;-82
2021/09/06 07:00:57;;;;;;;15.37;11.00;;;17.50;99.90;;;;;;5037409;28;20482;-82
2021/09/06 07:03:24;;;;;;;17.73;10.50;;;17.70;99.90;;;;;;5037995;28;20455;-82
2021/09/06 07:05:51;;;;;;;12.33;10.10;;;17.60;99.90;;;;;;5037330;28;20454;-82
2021/09/06 07:08:18;;;;;;;15.50;11.50;;;17.80;99.90;;;;;;5037413;28;20463;-82
2021/09/06 07:10:46;;;;;;;17.63;12.30;;;17.90;99.90;;;;;;5037525;28;20545;-82
2021/09/06 07:13:13;;;;;;;18.63;12.10;;;18.00;99.90;;;;;;5037326;28;20418;-82
2021/09/06 07:15:40;;;;;;;14.13;11.67;;;18.00;99.90;;;;;;5037120;28;20464;-81
2021/09/06 07:18:08;;;;;;;15.87;12.67;;;18.00;99.90;;;;;;5041242;28;20480;-83
2021/09/06 07:20:35;;;;;;;21.97;12.03;;;18.10;99.90;;;;;;5037330;28;20452;-83
2021/09/06 07:23:03;;;;;;;13.30;10.43;;;18.20;99.90;;;;;;5036921;28;20725;-83
2021/09/06 07:25:29;;;;;;;14.17;10.90;;;18.30;99.90;;;;;;5037904;28;20436;-83
2021/09/06 07:27:58;;;;;;;15.43;11.93;;;18.40;99.90;;;;;;5037118;28;20797;-83
2021/09/06 07:30:25;;;;;;;16.70;11.27;;;18.50;99.90;;;;;;5036630;28;20450;-83
2021/09/06 07:32:52;;;;;;;19.23;11.83;;;18.60;99.90;;;;;;5037253;28;20435;-83
2021/09/06 07:35:22;;;;;;;15.40;12.27;;;18.70;99.90;;;;;;5037320;28;20554;-88
2021/09/06 07:37:48;;;;;;;15.23;12.10;;;18.80;99.90;;;;;;5037489;28;20558;-81
2021/09/06 07:40:15;;;;;;;17.37;11.63;;;18.80;99.90;;;;;;5037016;28;20560;-81
2021/09/06 07:42:42;;;;;;;17.03;11.47;;;18.80;99.90;;;;;;5037111;28;20499;-81
2021/09/06 07:45:11;;;;;;;19.83;12.00;;;18.80;99.90;;;;;;5037000;28;20548;-81
2021/09/06 07:47:39;;;;;;;16.33;12.50;;;18.80;99.90;;;;;;5037148;28;20450;-81
2021/09/06 07:50:09;;;;;;;16.30;12.37;;;18.80;99.90;;;;;;5039090;28;20445;-82
2021/09/06 07:52:36;;;;;;;16.00;13.33;;;18.90;99.90;;;;;;5038808;28;20443;-82
2021/09/06 07:55:03;;;;;;;16.63;12.70;;;19.00;99.90;;;;;;5036886;28;20525;-82
2021/09/06 07:57:30;;;;;;;22.30;12.97;;;19.10;99.90;;;;;;5037424;28;20834;-82
2021/09/06 07:59:57;;;;;;;16.20;11.13;;;19.20;99.90;;;;;;5039756;28;20491;-81
2021/09/06 08:02:25;;;;;;;15.63;12.40;;;19.40;99.90;;;;;;5040680;28;20465;-82
2021/09/06 08:04:52;;;;;;;15.03;11.27;;;19.40;99.90;;;;;;5038869;28;20540;-82
2021/09/06 08:07:19;;;;;;;14.57;11.40;;;19.50;99.90;;;;;;5036870;28;20430;-82
2021/09/06 08:09:46;;;;;;;23.27;11.67;;;19.60;99.90;;;;;;5036765;28;20421;-82
2021/09/06 08:12:13;;;;;;;15.20;10.87;;;19.70;99.90;;;;;;5037734;28;20462;-83
2021/09/06 08:14:40;;;;;;;13.60;10.10;;;19.90;99.90;;;;;;5037229;28;20449;-83
2021/09/06 08:17:07;;;;;;;18.43;10.30;;;20.00;99.90;;;;;;5042966;28;20442;-82
2021/09/06 08:19:35;;;;;;;13.70;10.30;;;20.10;99.90;;;;;;5056775;28;20568;-83
2021/09/06 08:22:02;;;;;;;13.43;10.40;;;20.20;99.90;;;;;;5056779;28;20478;-83
2021/09/06 08:24:29;;;;;;;12.70;9.33;;;20.30;99.90;;;;;;5039273;28;20512;-83
2021/09/06 08:26:55;;;;;;;14.20;10.80;;;20.30;99.90;;;;;;5055699;28;20434;-83
2021/09/06 08:29:23;;;;;;;12.63;9.60;;;20.50;99.90;;;;;;5056306;28;20917;-80
2021/09/06 08:31:50;;;;;;;12.20;9.17;;;20.50;99.90;;;;;;5042951;28;20475;-83
2021/09/06 08:34:17;;;;;;;13.30;10.87;;;20.50;99.90;;;;;;5042145;28;20523;-82
2021/09/06 08:36:45;;;;;;;14.53;9.70;;;20.60;99.90;;;;;;5041080;28;20531;-81
2021/09/06 08:39:12;;;;;;;14.80;10.27;;;20.60;99.90;;;;;;5040207;28;20480;-81
2021/09/06 08:41:39;;;;;;;16.10;9.47;;;20.70;99.90;;;;;;5042028;28;20568;-83
2021/09/06 08:44:06;;;;;;;12.80;9.03;;;20.80;99.90;;;;;;5040614;28;20456;-81
2021/09/06 08:46:33;;;;;;;12.30;9.40;;;20.90;99.90;;;;;;5039703;28;20544;-80
2021/09/06 08:49:00;;;;;;;13.30;9.27;;;20.90;99.90;;;;;;5039896;28;20515;-83
2021/09/06 08:54:50;;;;;;;14.00;8.97;;;21.00;99.90;;;;;;5040070;28;20940;-83
2021/09/06 08:57:18;;;;;;;11.27;8.40;;;21.00;99.90;;;;;;5039973;28;20449;-83
2021/09/06 08:59:47;;;;;;;14.23;9.90;;;21.10;99.90;;;;;;5039703;28;20489;-83
2021/09/06 09:02:21;;;;;;;15.23;9.43;;;21.20;99.90;;;;;;5039939;28;20473;-83
2021/09/06 09:04:58;;;;;;;11.70;9.07;;;21.30;99.90;;;;;;5039781;28;20512;-82
2021/09/06 09:07:27;;;;;;;12.60;9.23;;;21.40;99.90;;;;;;5040269;28;20429;-83
2021/09/06 09:09:55;;;;;;;24.10;9.40;;;21.30;99.90;;;;;;5039382;28;20449;-81
2021/09/06 09:12:22;;;;;;;11.60;9.13;;;21.50;99.90;;;;;;5039420;28;20565;-83
2021/09/06 09:14:51;;;;;;;13.23;9.23;;;21.50;99.90;;;;;;5040315;28;20540;-82
2021/09/06 09:17:18;;;;;;;15.90;8.83;;;21.60;99.90;;;;;;5049527;28;20514;-82
2021/09/06 09:19:45;;;;;;;11.50;8.27;;;21.70;99.90;;;;;;5040277;28;20493;-82
2021/09/06 09:22:15;;;;;;;12.47;8.00;;;21.80;99.90;;;;;;5074432;22;20490;-80
2021/09/06 09:24:42;;;;;;;9.90;7.97;;;21.90;99.90;;;;;;5062259;28;20518;-80
2021/09/06 09:27:13;;;;;;;13.87;8.97;;;21.90;99.90;;;;;;5059512;28;20876;-79
2021/09/06 09:29:41;;;;;;;11.70;8.87;;;22.00;99.90;;;;;;5059835;28;20424;-80
2021/09/06 09:32:11;;;;;;;11.13;8.77;;;22.10;99.90;;;;;;5059234;28;21000;-80
2021/09/06 09:34:39;;;;;;;10.70;8.40;;;22.20;99.90;;;;;;5059516;28;20628;-80
2021/09/06 09:37:07;;;;;;;12.70;9.00;;;22.30;99.90;;;;;;5060128;28;20472;-81
2021/09/06 09:39:34;;;;;;;10.00;7.80;;;22.30;99.90;;;;;;5059622;28;21047;-81
2021/09/06 09:42:08;;;;;;;10.60;8.20;;;22.40;99.90;;;;;;5060047;28;20472;-81
2021/09/06 09:44:46;;;;;;;10.97;8.40;;;22.40;99.90;;;;;;5059176;28;20945;-80
2021/09/06 09:47:14;;;;;;;9.47;7.63;;;22.50;99.90;;;;;;5059371;28;20479;-78
2021/09/06 09:49:42;;;;;;;11.60;8.73;;;22.60;99.90;;;;;;5059395;28;20578;-80
2021/09/06 09:52:09;;;;;;;10.87;7.90;;;22.60;99.90;;;;;;5060938;28;20479;-81
2021/09/06 09:54:36;;;;;;;9.50;7.43;;;22.80;99.70;;;;;;5060251;28;20448;-83
2021/09/06 09:57:03;;;;;;;9.83;7.80;;;23.00;97.50;;;;;;5059317;28;20535;-83
2021/09/06 09:59:30;;;;;;;9.40;7.67;;;23.10;96.60;;;;;;5059530;28;20484;-81
2021/09/06 10:02:01;;;;;;;9.73;7.10;;;23.20;96.30;;;;;;5060956;28;20479;-81
2021/09/06 10:04:32;;;;;;;12.80;7.63;;;23.20;95.60;;;;;;5061832;28;20466;-82
2021/09/06 10:07:00;;;;;;;9.73;8.30;;;23.30;95.60;;;;;;5060301;28;20859;-82
2021/09/06 10:09:27;;;;;;;11.03;8.80;;;23.30;95.60;;;;;;5059193;28;20449;-80
2021/09/06 10:12:04;;;;;;;8.40;7.33;;;23.50;95.10;;;;;;5059763;28;20473;-80
2021/09/06 10:14:32;;;;;;;13.50;8.00;;;23.60;94.30;;;;;;5059533;28;20443;-82
2021/09/06 10:17:06;;;;;;;8.93;7.70;;;23.70;93.60;;;;;;5061143;28;20436;-81
2021/09/06 10:19:41;;;;;;;10.57;7.70;;;23.70;93.60;;;;;;5065148;28;20519;-81
2021/09/06 10:22:09;;;;;;;10.40;9.07;;;23.80;93.90;;;;;;5060638;28;20472;-79
2021/09/06 10:24:36;;;;;;;9.60;8.27;;;23.70;93.20;;;;;;5061318;28;20452;-82
2021/09/06 10:27:07;;;;;;;12.27;9.23;;;23.80;93.70;;;;;;5069822;28;20448;-83
2021/09/06 10:29:34;;;;;;;10.67;9.10;;;23.80;94.60;;;;;;5067637;28;20959;-82
2021/09/06 10:32:05;;;;;;;12.70;9.10;;;23.90;94.70;;;;;;5062506;28;20551;-83
2021/09/06 10:34:32;;;;;;;13.17;9.87;;;24.00;94.80;;;;;;5060836;28;20527;-80
2021/09/06 10:37:03;;;;;;;10.50;8.73;;;24.00;95.20;;;;;;5063570;28;20543;-83
2021/09/06 10:39:31;;;;;;;8.77;7.60;;;23.90;94.70;;;;;;5066470;28;20433;-80
2021/09/06 10:42:06;;;;;;;9.60;7.90;;;24.00;95.30;;;;;;5075288;28;20491;-79
2021/09/06 10:44:38;;;;;;;8.97;7.37;;;24.00;95.60;;;;;;5073131;28;20467;-82
2021/09/06 10:47:12;;;;;;;10.63;8.90;;;24.10;95.40;;;;;;5066606;28;20452;-82
2021/09/06 10:49:42;;;;;;;10.20;8.27;;;24.20;94.90;;;;;;5064352;28;20850;-85
2021/09/06 10:52:09;;;;;;;9.60;8.47;;;24.20;94.30;;;;;;5065724;28;20504;-86
2021/09/06 10:54:38;;;;;;;9.70;7.60;;;24.20;93.50;;;;;;5064064;28;20483;-85
2021/09/06 10:57:07;;;;;;;10.33;9.13;;;24.20;93.60;;;;;;5062581;28;20455;-83
2021/09/06 10:59:35;;;;;;;8.80;7.70;;;24.30;93.50;;;;;;5061644;28;20455;-83
2021/09/06 11:02:05;;;;;;;10.43;9.00;;;24.40;93.10;;;;;;5061094;28;20474;-84
2021/09/06 11:04:34;;;;;;;10.00;8.47;;;24.50;93.10;;;;;;5062548;28;20432;-83
2021/09/06 11:07:06;;;;;;;10.73;8.43;;;24.60;92.70;;;;;;5065397;28;20937;-84
2021/09/06 11:09:34;;;;;;;10.63;7.93;;;24.60;92.40;;;;;;5063822;28;20460;-84
2021/09/06 11:12:07;;;;;;;9.53;8.53;;;24.60;92.40;;;;;;5066049;28;20497;-89
2021/09/06 11:14:36;;;;;;;9.60;8.60;;;24.60;92.70;;;;;;5064338;28;20473;-90
2021/09/06 11:18:14;;;;;;;9.93;8.93;;;24.70;92.40;;;;;;5069061;28;20480;-91
2021/09/06 11:20:57;;;;;;;9.50;8.50;;;24.60;90.90;;;;;;5541244;22;20521;-90
2021/09/06 11:23:32;;;;;;;9.17;8.17;;;24.60;91.30;;;;;;5020761;28;20452;-81
2021/09/06 11:25:59;;;;;;;10.80;8.40;;;24.60;91.30;;;;;;5020084;28;20868;-81
2021/09/06 11:28:26;;;;;;;9.40;8.20;;;24.70;91.30;;;;;;5020941;28;20479;-82
2021/09/06 11:30:53;;;;;;;8.73;7.83;;;24.70;91.30;;;;;;5024326;28;20451;-82
2021/09/06 11:33:19;;;;;;;9.67;7.73;;;24.80;91.80;;;;;;5025570;28;20478;-84
2021/09/06 11:35:48;;;;;;;8.63;7.70;;;24.80;90.90;;;;;;5023476;28;20529;-79
2021/09/06 11:38:18;;;;;;;10.03;8.40;;;24.80;90.50;;;;;;5028189;28;20949;-78
2021/09/06 11:40:51;;;;;;;9.30;8.20;;;24.90;90.10;;;;;;5028991;28;20478;-78
2021/09/06 11:43:19;;;;;;;8.83;7.67;;;25.10;90.00;;;;;;5034888;28;20525;-79
2021/09/06 11:45:47;;;;;;;9.90;8.10;;;25.10;89.60;;;;;;5025860;28;20954;-83
2021/09/06 11:48:14;;;;;;;11.53;8.00;;;25.10;89.50;;;;;;5018666;28;20882;-81
2021/09/06 11:50:42;;;;;;;10.37;8.30;;;25.20;89.20;;;;;;5018368;28;20481;-81
2021/09/06 11:53:11;;;;;;;8.70;7.70;;;25.20;88.30;;;;;;5017915;28;20475;-81
2021/09/06 11:55:50;;;;;;;9.20;8.00;;;25.30;88.90;;;;;;5019809;28;20478;-80
2021/09/06 11:58:17;;;;;;;9.70;8.20;;;25.40;86.20;;;;;;5026078;28;20435;-81
2021/09/06 12:00:44;;;;;;;9.43;8.53;;;25.30;88.30;;;;;;5027670;28;20513;-82
2021/09/06 12:03:11;;;;;;;9.90;8.50;;;25.20;89.10;;;;;;5032062;28;20542;-80
2021/09/06 12:05:39;;;;;;;9.70;8.70;;;25.10;90.10;;;;;;5025434;28;20829;-82
2021/09/06 12:08:12;;;;;;;9.50;7.80;;;25.10;90.50;;;;;;5022429;28;20486;-80
2021/09/06 12:10:41;;;;;;;11.67;9.10;;;25.00;90.30;;;;;;5024024;28;20432;-81
2021/09/06 12:13:09;;;;;;;9.60;8.60;;;24.90;90.10;;;;;;5022687;28;20475;-81
2021/09/06 12:15:39;;;;;;;11.80;9.10;;;24.80;90.60;;;;;;5020654;28;20550;-81
2021/09/06 12:18:07;;;;;;;10.67;7.97;;;24.80;90.20;;;;;;5020688;28;20466;-81
2021/09/06 12:20:38;;;;;;;9.50;8.20;;;24.90;90.10;;;;;;5020315;28;20495;-81
2021/09/06 12:23:06;;;;;;;8.57;7.60;;;25.10;88.20;;;;;;5021180;28;20847;-82
2021/09/06 12:25:33;;;;;;;11.30;8.10;;;25.10;85.20;;;;;;5020477;28;20451;-81
2021/09/06 12:28:11;;;;;;;8.63;7.13;;;25.20;83.70;;;;;;5022265;28;20459;-79
2021/09/06 12:30:39;;;;;;;8.73;7.70;;;25.30;84.40;;;;;;5031852;28;20470;-80
2021/09/06 12:33:07;;;;;;;9.50;7.63;;;25.30;85.30;;;;;;5023256;28;20499;-80
2021/09/06 12:35:34;;;;;;;10.00;8.13;;;25.30;84.40;;;;;;5023151;28;20465;-80
2021/09/06 12:38:01;;;;;;;9.27;8.27;;;25.40;84.50;;;;;;5021081;28;20450;-80
2021/09/06 12:40:28;;;;;;;10.20;7.43;;;25.50;84.10;;;;;;5022713;28;20521;-81
2021/09/06 12:42:55;;;;;;;9.87;7.57;;;25.50;83.50;;;;;;5022153;28;20962;-80
2021/09/06 12:45:24;;;;;;;12.70;7.47;;;25.50;81.70;;;;;;5021070;28;20999;-80